createdAt,value
2024-01-12T00:00:32.957Z,1.38
2024-01-12T00:03:00.234Z,1.55
2024-01-12T00:05:27.720Z,1.67
2024-01-12T00:07:54.965Z,1.30
2024-01-12T00:10:22.178Z,1.40
2024-01-12T00:12:49.383Z,1.30
2024-01-12T00:15:16.812Z,1.50
2024-01-12T00:17:44.054Z,1.35
2024-01-12T00:20:11.955Z,1.67
2024-01-12T00:22:39.417Z,1.40
2024-01-12T00:25:07.272Z,1.23
2024-01-12T00:27:34.438Z,1.95
2024-01-12T00:30:01.741Z,1.48
2024-01-12T00:32:29.018Z,1.25
2024-01-12T00:34:56.222Z,1.27
2024-01-12T00:37:23.458Z,1.30
2024-01-12T00:39:50.600Z,1.48
2024-01-12T00:42:17.927Z,1.10
2024-01-12T00:44:45.135Z,1.90
2024-01-12T00:47:12.377Z,1.25
2024-01-12T00:49:39.745Z,2.15
2024-01-12T00:52:06.994Z,1.40
2024-01-12T00:54:34.229Z,1.90
2024-01-12T00:57:01.511Z,1.40
2024-01-12T00:59:28.769Z,1.70
2024-01-12T01:01:59.605Z,1.70
2024-01-12T01:04:27.456Z,1.80
2024-01-12T01:06:55.139Z,1.45
2024-01-12T01:09:22.507Z,1.20
2024-01-12T01:11:54.102Z,1.10
2024-01-12T01:14:23.962Z,1.48
2024-01-12T01:16:51.160Z,1.50
2024-01-12T01:19:18.834Z,1.73
2024-01-12T01:21:46.223Z,1.50
2024-01-12T01:24:13.441Z,1.42
2024-01-12T01:26:40.702Z,1.88
2024-01-12T01:29:07.913Z,1.67
2024-01-12T01:31:35.138Z,1.33
2024-01-12T01:34:03.076Z,1.50
2024-01-12T01:36:30.603Z,1.35
2024-01-12T01:38:57.809Z,1.30
2024-01-12T01:41:25.193Z,1.48
2024-01-12T01:43:52.798Z,1.48
2024-01-12T01:46:20.839Z,1.40
2024-01-12T01:48:48.354Z,1.30
2024-01-12T01:51:16.194Z,1.25
2024-01-12T01:53:44.025Z,0.93
2024-01-12T01:56:12.525Z,1.27
2024-01-12T01:58:40.318Z,1.45
2024-01-12T02:01:08.262Z,1.42
2024-01-12T02:03:35.704Z,1.20
2024-01-12T02:06:03.263Z,1.17
2024-01-12T02:08:31.382Z,1.10
2024-01-12T02:10:58.615Z,1.13
2024-01-12T02:13:26.172Z,1.10
2024-01-12T02:15:53.519Z,1.00
2024-01-12T02:18:21.013Z,1.40
2024-01-12T02:20:49.897Z,1.20
2024-01-12T02:23:17.317Z,1.23
2024-01-12T02:25:46.247Z,1.20
2024-01-12T02:28:14.251Z,1.25
2024-01-12T02:30:41.880Z,1.35
2024-01-12T02:33:09.865Z,1.08
2024-01-12T02:35:37.607Z,1.25
2024-01-12T02:38:05.061Z,1.50
2024-01-12T02:40:32.551Z,1.00
2024-01-12T02:42:59.732Z,1.13
2024-01-12T02:45:27.091Z,1.35
2024-01-12T02:47:54.441Z,1.40
2024-01-12T02:50:21.809Z,1.60
2024-01-12T02:52:49.255Z,1.30
2024-01-12T02:55:16.723Z,1.45
2024-01-12T02:57:44.010Z,1.00
2024-01-12T03:00:12.189Z,1.23
2024-01-12T03:02:39.437Z,1.40
2024-01-12T03:05:07.498Z,2.00
2024-01-12T03:07:34.698Z,1.67
2024-01-12T03:10:02.321Z,1.20
2024-01-12T03:12:29.843Z,1.30
2024-01-12T03:14:57.276Z,1.40
2024-01-12T03:17:24.632Z,1.30
2024-01-12T03:19:52.031Z,1.30
2024-01-12T03:22:19.355Z,1.52
2024-01-12T03:24:46.650Z,1.20
2024-01-12T03:27:13.913Z,1.42
2024-01-12T03:29:41.148Z,1.42
2024-01-12T03:32:08.480Z,1.30
2024-01-12T03:34:35.804Z,1.73
2024-01-12T03:37:03.136Z,1.90
2024-01-12T03:39:30.367Z,1.40
2024-01-12T03:41:57.640Z,1.60
2024-01-12T03:44:24.960Z,1.30
2024-01-12T03:46:52.177Z,1.35
2024-01-12T03:49:20.649Z,1.40
2024-01-12T03:51:56.141Z,1.30
2024-01-12T03:54:26.310Z,1.27
2024-01-12T03:56:54.096Z,1.40
2024-01-12T03:59:22.376Z,1.20
2024-01-12T04:01:51.141Z,1.25
2024-01-12T04:04:18.766Z,1.30
2024-01-12T04:06:46.297Z,1.45
2024-01-12T04:09:16.384Z,1.30
2024-01-12T04:11:44.302Z,1.15
2024-01-12T04:14:11.521Z,1.20
2024-01-12T04:16:38.709Z,1.20
2024-01-12T04:19:06.076Z,1.40
2024-01-12T04:21:33.366Z,1.33
2024-01-12T04:24:01.709Z,1.85
2024-01-12T04:26:29.387Z,1.17
2024-01-12T04:28:56.670Z,1.50
2024-01-12T04:31:23.837Z,1.40
2024-01-12T04:33:51.220Z,1.52
2024-01-12T04:36:24.347Z,1.25
2024-01-12T04:38:51.908Z,1.60
2024-01-12T04:41:19.258Z,1.52
2024-01-12T04:43:46.463Z,1.42
2024-01-12T04:46:13.992Z,1.10
2024-01-12T04:48:41.261Z,1.20
2024-01-12T04:51:08.562Z,1.33
2024-01-12T04:53:36.068Z,1.25
2024-01-12T04:56:03.296Z,1.42
2024-01-12T04:58:30.621Z,1.35
2024-01-12T05:00:57.899Z,1.30
2024-01-12T05:03:25.166Z,1.55
2024-01-12T05:05:52.521Z,1.50
2024-01-12T05:08:19.838Z,1.35
2024-01-12T05:10:47.000Z,1.20
2024-01-12T05:13:14.177Z,1.50
2024-01-12T05:15:41.475Z,1.42
2024-01-12T05:18:08.821Z,1.30
2024-01-12T05:20:36.238Z,1.58
2024-01-12T05:23:08.012Z,1.20
2024-01-12T05:25:35.554Z,1.30
2024-01-12T05:28:02.755Z,1.30
2024-01-12T05:30:30.061Z,1.23
2024-01-12T05:32:57.562Z,1.20
2024-01-12T05:35:24.868Z,1.80
2024-01-12T05:37:53.013Z,1.50
2024-01-12T05:40:20.395Z,1.58
2024-01-12T05:42:47.709Z,1.40
2024-01-12T05:45:15.313Z,1.50
2024-01-12T05:47:42.639Z,1.50
2024-01-12T05:50:10.193Z,1.10
2024-01-12T05:52:37.695Z,1.45
2024-01-12T05:55:05.260Z,1.45
2024-01-12T05:57:34.658Z,1.55
2024-01-12T06:00:03.755Z,1.70
2024-01-12T06:02:31.130Z,1.30
2024-01-12T06:04:58.370Z,1.52
2024-01-12T06:07:25.616Z,1.63
2024-01-12T06:09:52.898Z,1.60
2024-01-12T06:12:20.284Z,1.70
2024-01-12T06:14:48.382Z,1.50
2024-01-12T06:17:15.701Z,1.40
2024-01-12T06:19:43.333Z,1.38
2024-01-12T06:22:11.741Z,1.77
2024-01-12T06:24:39.412Z,1.30
2024-01-12T06:27:06.951Z,1.60
2024-01-12T06:29:35.786Z,1.60
2024-01-12T06:32:05.016Z,2.15
2024-01-12T06:34:32.292Z,1.80
2024-01-12T06:36:59.556Z,1.52
2024-01-12T06:39:26.785Z,1.40
2024-01-12T06:41:54.235Z,1.30
2024-01-12T06:44:21.582Z,1.40
2024-01-12T06:46:48.781Z,1.30
2024-01-12T06:49:16.008Z,1.60
2024-01-12T06:51:43.390Z,1.20
2024-01-12T06:54:12.350Z,1.20
2024-01-12T06:56:40.144Z,1.30
2024-01-12T06:59:07.519Z,1.70
2024-01-12T07:01:35.147Z,1.40
2024-01-12T07:04:02.428Z,1.40
2024-01-12T07:06:30.515Z,1.67
2024-01-12T07:08:57.820Z,1.35
2024-01-12T07:11:25.794Z,1.42
2024-01-12T07:13:53.222Z,1.40
2024-01-12T07:16:20.469Z,1.67
2024-01-12T07:18:47.858Z,1.77
2024-01-12T07:21:15.707Z,1.50
2024-01-12T07:23:43.003Z,1.65
2024-01-12T07:26:10.290Z,1.35
2024-01-12T07:28:37.529Z,1.33
2024-01-12T07:31:04.920Z,1.80
2024-01-12T07:33:32.220Z,1.40
2024-01-12T07:35:59.622Z,1.88
2024-01-12T07:38:26.920Z,1.80
2024-01-12T07:40:54.379Z,1.90
2024-01-12T07:43:21.588Z,1.70
2024-01-12T07:45:48.998Z,1.90
2024-01-12T07:48:16.384Z,1.75
2024-01-12T07:50:44.065Z,1.40
2024-01-12T07:53:11.544Z,1.60
2024-01-12T07:55:39.412Z,1.50
2024-01-12T07:58:06.639Z,1.60
2024-01-12T08:00:33.934Z,1.55
2024-01-12T08:03:01.127Z,1.80
2024-01-12T08:05:32.785Z,2.17
2024-01-12T08:08:01.326Z,1.67
2024-01-12T08:10:28.557Z,1.80
2024-01-12T08:12:56.064Z,1.77
2024-01-12T08:15:23.386Z,2.15
2024-01-12T08:17:50.833Z,1.50
2024-01-12T08:20:18.288Z,1.80
2024-01-12T08:22:45.832Z,1.92
2024-01-12T08:25:13.104Z,1.63
2024-01-12T08:27:40.388Z,1.50
2024-01-12T08:30:09.491Z,1.80
2024-01-12T08:32:37.317Z,1.70
2024-01-12T08:35:05.626Z,1.60
2024-01-12T08:37:32.833Z,1.73
2024-01-12T08:40:00.536Z,1.80
2024-01-12T08:42:27.742Z,1.67
2024-01-12T08:44:55.016Z,2.15
2024-01-12T08:47:22.712Z,2.00
2024-01-12T08:49:49.898Z,1.40
2024-01-12T08:52:17.118Z,1.90
2024-01-12T08:54:45.087Z,1.70
2024-01-12T08:57:12.300Z,1.45
2024-01-12T08:59:39.507Z,1.45
2024-01-12T09:02:06.777Z,1.92
2024-01-12T09:04:34.170Z,1.75
2024-01-12T09:07:01.727Z,2.22
2024-01-12T09:09:29.208Z,1.85
2024-01-12T09:11:56.809Z,1.90
2024-01-12T09:14:24.113Z,1.77
2024-01-12T09:16:51.480Z,1.92
2024-01-12T09:19:19.516Z,1.33
2024-01-12T09:21:46.769Z,1.63
2024-01-12T09:24:14.429Z,1.38
2024-01-12T09:26:41.936Z,1.50
2024-01-12T09:29:09.306Z,1.50
2024-01-12T09:31:36.669Z,1.63
2024-01-12T09:34:04.243Z,2.05
2024-01-12T09:36:31.568Z,1.88
2024-01-12T09:38:59.006Z,1.70
2024-01-12T09:41:51.109Z,1.30
2024-01-12T09:44:22.633Z,1.70
2024-01-12T09:46:49.853Z,1.80
2024-01-12T09:49:17.185Z,1.42
2024-01-12T09:51:44.614Z,1.70
2024-01-12T09:54:11.933Z,1.70
2024-01-12T09:59:09.767Z,2.10
2024-01-12T10:01:37.607Z,1.60
2024-01-12T10:04:05.099Z,1.35
2024-01-12T10:06:34.150Z,1.20
2024-01-12T10:09:01.473Z,1.75
2024-01-12T10:11:28.971Z,1.50
2024-01-12T10:13:56.299Z,1.42
2024-01-12T10:16:29.331Z,1.90
2024-01-12T10:19:03.229Z,2.03
2024-01-12T10:21:30.645Z,4.80
2024-01-12T10:24:08.146Z,2.17
2024-01-12T10:26:35.593Z,2.80
2024-01-12T10:29:06.269Z,2.33
2024-01-12T10:31:40.031Z,2.03
2024-01-12T10:34:15.955Z,1.95
2024-01-12T10:36:44.100Z,2.10
2024-01-12T10:39:15.606Z,2.58
2024-01-12T10:41:43.389Z,2.10
2024-01-12T10:44:12.712Z,1.85
2024-01-12T10:46:47.294Z,1.80
2024-01-12T10:49:19.551Z,1.80
2024-01-12T10:51:52.949Z,2.13
2024-01-12T10:54:31.285Z,1.77
2024-01-12T10:56:59.285Z,1.80
2024-01-12T10:59:26.913Z,2.10
2024-01-12T11:01:55.283Z,3.70
2024-01-12T11:04:25.456Z,2.28
2024-01-12T11:06:59.916Z,3.10
2024-01-12T11:09:28.604Z,2.30
2024-01-12T11:12:09.711Z,2.03
2024-01-12T11:14:41.760Z,2.47
2024-01-12T11:17:09.073Z,2.80
2024-01-12T11:19:36.677Z,2.30
2024-01-12T11:22:11.536Z,2.72
2024-01-12T11:24:44.381Z,2.90
2024-01-12T11:27:14.814Z,3.17
2024-01-12T11:29:46.655Z,2.60
2024-01-12T11:32:16.902Z,3.45
2024-01-12T11:34:44.448Z,4.10
2024-01-12T11:37:11.938Z,5.75
2024-01-12T11:39:39.602Z,17.20
2024-01-12T11:42:07.226Z,7.60
2024-01-12T11:44:35.480Z,7.22
2024-01-12T11:47:09.694Z,6.53
2024-01-12T11:49:37.389Z,5.75
2024-01-12T11:52:06.507Z,4.10
2024-01-12T11:54:34.501Z,5.68
2024-01-12T11:57:04.101Z,4.97
2024-01-12T11:59:32.033Z,3.95
2024-01-12T12:02:01.433Z,2.50
2024-01-12T12:04:28.725Z,2.70
2024-01-12T12:06:56.198Z,2.85
2024-01-12T12:09:23.671Z,2.70
2024-01-12T12:11:50.919Z,2.97
2024-01-12T12:14:18.082Z,2.60
2024-01-12T12:16:45.406Z,3.38
2024-01-12T12:19:12.840Z,3.22
2024-01-12T12:21:40.202Z,3.20
2024-01-12T12:24:07.705Z,3.53
2024-01-12T12:26:35.112Z,2.42
2024-01-12T12:29:02.424Z,2.63
2024-01-12T12:31:32.033Z,2.33
2024-01-12T12:34:00.058Z,2.92
2024-01-12T12:36:31.434Z,2.65
2024-01-12T12:38:58.911Z,3.03
2024-01-12T12:41:26.599Z,3.90
2024-01-12T12:43:54.846Z,3.30
2024-01-12T12:46:22.105Z,3.50
2024-01-12T12:48:50.577Z,3.60
2024-01-12T12:51:17.942Z,2.88
2024-01-12T12:53:45.294Z,2.92
2024-01-12T12:56:12.790Z,2.88
2024-01-12T12:58:40.058Z,2.97
2024-01-12T13:01:07.438Z,2.88
2024-01-12T13:03:34.758Z,3.03
2024-01-12T13:06:02.584Z,3.38
2024-01-12T13:08:29.904Z,2.65
2024-01-12T13:10:57.177Z,3.35
2024-01-12T13:13:24.499Z,2.80
2024-01-12T13:15:51.822Z,2.35
2024-01-12T13:18:19.253Z,2.42
2024-01-12T13:20:50.216Z,2.38
2024-01-12T13:23:19.117Z,2.95
2024-01-12T13:25:46.455Z,2.95
2024-01-12T13:28:13.881Z,4.22
2024-01-12T13:30:41.283Z,4.35
2024-01-12T13:33:09.545Z,8.82
2024-01-12T13:35:37.049Z,10.10
2024-01-12T13:38:04.647Z,7.38
2024-01-12T13:40:31.806Z,6.20
2024-01-12T13:42:59.313Z,4.13
2024-01-12T13:45:26.963Z,5.28
2024-01-12T13:47:54.777Z,5.75
2024-01-12T13:50:22.720Z,5.47
2024-01-12T13:52:50.140Z,4.78
2024-01-12T13:55:17.374Z,4.57
2024-01-12T13:57:44.538Z,3.95
2024-01-12T14:00:15.328Z,3.10
2024-01-12T14:02:42.874Z,3.55
2024-01-12T14:05:17.527Z,3.22
2024-01-12T14:07:46.528Z,6.10
2024-01-12T14:10:14.333Z,8.52
2024-01-12T14:12:41.686Z,11.32
2024-01-12T14:15:09.843Z,11.73
2024-01-12T14:17:37.320Z,10.45
2024-01-12T14:20:05.243Z,8.30
2024-01-12T14:22:32.952Z,6.90
2024-01-12T14:25:00.301Z,5.32
2024-01-12T14:27:27.712Z,4.47
2024-01-12T14:29:56.030Z,5.78
2024-01-12T14:32:23.755Z,4.88
2024-01-12T14:34:51.376Z,5.47
2024-01-12T14:37:18.659Z,5.72
2024-01-12T14:39:46.029Z,4.50
2024-01-12T14:42:13.258Z,2.05
2024-01-12T14:44:40.946Z,1.63
2024-01-12T14:47:09.014Z,4.50
2024-01-12T14:49:38.274Z,16.95
2024-01-12T14:52:05.869Z,13.40
2024-01-12T14:54:35.307Z,11.25
2024-01-12T14:57:04.113Z,8.55
2024-01-12T14:59:31.514Z,6.38
2024-01-12T15:01:58.785Z,6.90
2024-01-12T15:04:26.118Z,6.97
2024-01-12T15:06:53.439Z,6.97
2024-01-12T15:09:20.872Z,6.05
2024-01-12T15:11:48.430Z,4.35
2024-01-12T15:14:16.757Z,5.72
2024-01-12T15:16:45.103Z,6.22
2024-01-12T15:19:12.994Z,3.78
2024-01-12T15:21:40.799Z,3.35
2024-01-12T15:24:08.193Z,2.97
2024-01-12T15:26:35.425Z,3.47
2024-01-12T15:29:03.004Z,2.90
2024-01-12T15:31:30.444Z,6.75
2024-01-12T15:33:58.802Z,22.55
2024-01-12T15:36:26.187Z,19.02
2024-01-12T15:38:53.435Z,10.98
2024-01-12T15:41:20.729Z,8.10
2024-01-12T15:43:47.990Z,8.00
2024-01-12T15:46:15.788Z,6.43
2024-01-12T15:48:43.709Z,7.75
2024-01-12T15:51:16.830Z,4.75
2024-01-12T15:53:44.459Z,4.13
2024-01-12T15:56:11.697Z,13.98
2024-01-12T15:58:39.236Z,14.00
2024-01-12T16:01:06.513Z,6.57
2024-01-12T16:03:33.744Z,6.35
2024-01-12T16:06:07.436Z,5.63
2024-01-12T16:11:01.777Z,7.72
2024-01-12T16:13:29.013Z,11.65
2024-01-12T16:15:56.227Z,6.93
2024-01-12T16:18:23.514Z,6.10
2024-01-12T16:20:51.867Z,4.90
2024-01-12T16:23:19.127Z,3.90
2024-01-12T16:25:46.367Z,4.07
2024-01-12T16:28:13.928Z,3.30
2024-01-12T16:30:42.986Z,4.18
2024-01-12T16:33:10.363Z,16.50
2024-01-12T16:35:37.760Z,13.63
2024-01-12T16:38:05.114Z,7.15
2024-01-12T16:40:32.746Z,9.98
2024-01-12T16:43:00.165Z,9.63
2024-01-12T16:45:27.386Z,9.07
2024-01-12T16:47:54.937Z,8.30
2024-01-12T16:50:22.189Z,8.05
2024-01-12T16:52:49.402Z,9.57
2024-01-12T16:55:16.835Z,8.15
2024-01-12T16:57:43.986Z,6.88
2024-01-12T17:00:11.701Z,8.75
2024-01-12T17:02:40.423Z,11.02
2024-01-12T17:05:10.364Z,8.93
2024-01-12T17:07:37.747Z,7.32
2024-01-12T17:10:05.820Z,6.63
2024-01-12T17:12:33.056Z,7.28
2024-01-12T17:15:00.514Z,6.65
2024-01-12T17:17:30.925Z,6.97
2024-01-12T17:19:59.446Z,6.28
2024-01-12T17:22:26.734Z,5.55
2024-01-12T17:24:54.140Z,5.85
2024-01-12T17:27:21.357Z,6.45
2024-01-12T17:29:48.657Z,6.20
2024-01-12T17:32:15.999Z,6.22
2024-01-12T17:34:43.711Z,13.18
2024-01-12T17:37:14.571Z,12.02
2024-01-12T17:39:44.206Z,10.48
2024-01-12T17:42:11.467Z,9.48
2024-01-12T17:44:39.020Z,7.60
2024-01-12T17:47:06.346Z,7.32
2024-01-12T17:49:33.653Z,7.18
2024-01-12T17:52:00.945Z,6.93
2024-01-12T17:54:29.459Z,6.60
2024-01-12T17:56:56.944Z,6.60
2024-01-12T17:59:24.833Z,6.10
2024-01-12T18:01:52.130Z,6.38
2024-01-12T18:04:19.306Z,7.00
2024-01-12T18:06:46.702Z,8.50
2024-01-12T18:09:14.119Z,8.15
2024-01-12T18:11:41.680Z,12.07
2024-01-12T18:14:09.863Z,12.52
2024-01-12T18:16:37.872Z,12.23
2024-01-12T18:19:05.884Z,11.65
2024-01-12T18:21:33.557Z,9.50
2024-01-12T18:24:01.397Z,10.82
2024-01-12T18:26:28.632Z,11.45
2024-01-12T18:28:55.885Z,12.13
2024-01-12T18:31:25.217Z,11.10
2024-01-12T18:33:52.718Z,13.50
2024-01-12T18:36:20.229Z,16.48
2024-01-12T18:38:47.676Z,13.23
2024-01-12T18:41:14.921Z,12.13
2024-01-12T18:43:42.767Z,10.48
2024-01-12T18:46:10.066Z,10.07
2024-01-12T18:48:37.430Z,9.10
2024-01-12T18:51:05.361Z,9.95
2024-01-12T18:53:32.818Z,8.35
2024-01-12T18:56:00.055Z,9.07
2024-01-12T18:58:27.608Z,10.30
2024-01-12T19:00:54.906Z,8.40
2024-01-12T19:03:22.218Z,8.60
2024-01-12T19:05:49.725Z,8.40
2024-01-12T19:08:17.107Z,7.70
2024-01-12T19:10:47.925Z,7.28
2024-01-12T19:13:15.197Z,7.15
2024-01-12T19:15:42.522Z,7.13
2024-01-12T19:18:10.101Z,6.07
2024-01-12T19:20:37.820Z,6.72
2024-01-12T19:23:05.485Z,6.38
2024-01-12T19:25:32.670Z,5.53
2024-01-12T19:27:59.888Z,5.20
2024-01-12T19:30:27.170Z,5.57
2024-01-12T19:32:54.622Z,5.15
2024-01-12T19:35:21.848Z,4.97
2024-01-12T19:37:49.105Z,5.05
2024-01-12T19:40:16.759Z,5.28
2024-01-12T19:42:43.998Z,4.55
2024-01-12T19:45:11.358Z,5.35
2024-01-12T19:47:39.299Z,4.75
2024-01-12T19:50:07.468Z,4.53
2024-01-12T19:52:34.668Z,5.10
2024-01-12T19:55:01.944Z,5.15
2024-01-12T19:57:29.147Z,5.10
2024-01-12T19:59:56.417Z,4.70
2024-01-12T20:02:24.222Z,5.28
2024-01-12T20:04:51.596Z,4.63
2024-01-12T20:07:18.867Z,4.65
2024-01-12T20:09:46.183Z,5.05
2024-01-12T20:12:13.906Z,5.70
2024-01-12T20:14:41.347Z,4.90
2024-01-12T20:17:08.810Z,5.90
2024-01-12T20:19:36.156Z,6.03
2024-01-12T20:22:03.518Z,5.03
2024-01-12T20:24:30.770Z,4.40
2024-01-12T20:26:58.048Z,4.38
2024-01-12T20:29:25.306Z,4.93
2024-01-12T20:31:52.845Z,4.95
2024-01-12T20:34:20.189Z,4.13
2024-01-12T20:36:47.499Z,4.07
2024-01-12T20:39:15.442Z,3.92
2024-01-12T20:41:42.674Z,4.22
2024-01-12T20:44:09.862Z,3.88
2024-01-12T20:46:37.139Z,3.22
2024-01-12T20:49:04.815Z,3.55
2024-01-12T20:51:32.057Z,3.40
2024-01-12T20:53:59.662Z,4.85
2024-01-12T20:56:26.937Z,6.25
2024-01-12T20:58:55.587Z,4.60
2024-01-12T21:01:23.414Z,3.55
2024-01-12T21:03:53.532Z,4.95
2024-01-12T21:06:20.914Z,4.85
2024-01-12T21:08:48.329Z,4.90
2024-01-12T21:11:15.522Z,4.90
2024-01-12T21:13:42.695Z,4.88
2024-01-12T21:16:12.916Z,4.50
2024-01-12T21:18:40.372Z,3.70
2024-01-12T21:21:07.700Z,3.85
2024-01-12T21:23:35.089Z,3.40
2024-01-12T21:26:02.332Z,3.50
2024-01-12T21:28:29.576Z,3.35
2024-01-12T21:30:56.934Z,2.42
2024-01-12T21:33:24.540Z,3.03
2024-01-12T21:35:51.959Z,3.25
2024-01-12T21:38:20.393Z,3.42
2024-01-12T21:40:48.065Z,3.92
2024-01-12T21:43:15.320Z,3.20
2024-01-12T21:45:42.598Z,3.38
2024-01-12T21:48:10.008Z,3.13
2024-01-12T21:50:39.721Z,3.22
2024-01-12T21:53:08.121Z,3.47
2024-01-12T21:55:35.360Z,5.20
2024-01-12T21:58:06.624Z,6.88
2024-01-12T22:00:34.959Z,8.82
2024-01-12T22:03:02.954Z,11.82
2024-01-12T22:05:30.603Z,8.85
2024-01-12T22:07:57.803Z,6.35
2024-01-12T22:10:25.093Z,5.78
2024-01-12T22:12:53.669Z,5.47
2024-01-12T22:15:20.920Z,4.57
2024-01-12T22:17:48.615Z,4.00
2024-01-12T22:20:16.004Z,4.10
2024-01-12T22:22:43.594Z,4.20
2024-01-12T22:25:11.710Z,4.82
2024-01-12T22:27:40.100Z,3.78
2024-01-12T22:30:09.301Z,3.17
2024-01-12T22:32:37.310Z,3.53
2024-01-12T22:35:04.906Z,3.63
2024-01-12T22:37:32.212Z,3.90
2024-01-12T22:39:59.499Z,4.30
2024-01-12T22:42:26.781Z,3.97
2024-01-12T22:44:53.995Z,4.00
2024-01-12T22:47:21.655Z,3.42
2024-01-12T22:49:49.031Z,3.38
2024-01-12T22:52:16.253Z,3.85
2024-01-12T22:54:43.795Z,3.33
2024-01-12T22:57:11.149Z,3.63
2024-01-12T22:59:38.450Z,3.70
2024-01-12T23:02:05.935Z,3.10
2024-01-12T23:04:33.097Z,4.00
2024-01-12T23:07:00.298Z,3.55
2024-01-12T23:09:27.666Z,3.30
2024-01-12T23:11:56.368Z,3.45
2024-01-12T23:14:23.590Z,3.33
2024-01-12T23:16:51.393Z,3.13
2024-01-12T23:19:19.514Z,2.95
2024-01-12T23:21:46.877Z,2.75
2024-01-12T23:24:14.372Z,3.00
2024-01-12T23:26:41.844Z,3.20
2024-01-12T23:29:09.077Z,2.92
2024-01-12T23:31:36.601Z,3.22
2024-01-12T23:34:04.244Z,3.50
2024-01-12T23:36:31.695Z,4.60
2024-01-12T23:38:58.929Z,3.55
2024-01-12T23:41:31.815Z,4.18
2024-01-12T23:44:00.686Z,2.97
2024-01-12T23:46:28.110Z,3.53
2024-01-12T23:48:55.391Z,2.95
2024-01-12T23:51:24.430Z,3.00
2024-01-12T23:53:51.851Z,3.25
2024-01-12T23:56:20.011Z,3.80
2024-01-12T23:58:47.236Z,3.70
